sensor_id;sensor_type;location;lat;lon;timestamp;temperature;humidity
7048;DHT22;3565;53.254;10.352;2023-02-28T00:00:12;-1.60;1.00
7048;DHT22;3565;53.254;10.352;2023-02-28T00:02:42;-1.60;1.00
7048;DHT22;3565;53.254;10.352;2023-02-28T00:05:14;-1.60;1.00
7048;DHT22;3565;53.254;10.352;2023-02-28T00:07:44;-1.70;1.00
7048;DHT22;3565;53.254;10.352;2023-02-28T00:10:16;-1.80;1.00
7048;DHT22;3565;53.254;10.352;2023-02-28T00:12:47;-1.80;1.00
7048;DHT22;3565;53.254;10.352;2023-02-28T00:15:17;-1.90;1.00
7048;DHT22;3565;53.254;10.352;2023-02-28T00:17:47;-1.90;47.30
7048;DHT22;3565;53.254;10.352;2023-02-28T00:20:17;-1.90;99.90
7048;DHT22;3565;53.254;10.352;2023-02-28T00:22:49;-1.90;1.00
7048;DHT22;3565;53.254;10.352;2023-02-28T00:25:20;-1.80;1.00
7048;DHT22;3565;53.254;10.352;2023-02-28T00:27:50;-1.80;1.00
7048;DHT22;3565;53.254;10.352;2023-02-28T00:30:20;-1.90;1.00
7048;DHT22;3565;53.254;10.352;2023-02-28T00:32:50;-1.90;1.00
7048;DHT22;3565;53.254;10.352;2023-02-28T00:37:59;-1.90;1.00
7048;DHT22;3565;53.254;10.352;2023-02-28T00:40:29;-1.90;21.50
7048;DHT22;3565;53.254;10.352;2023-02-28T00:42:58;-1.90;99.90
7048;DHT22;3565;53.254;10.352;2023-02-28T00:45:28;-1.90;99.90
7048;DHT22;3565;53.254;10.352;2023-02-28T00:47:57;-1.90;99.90
7048;DHT22;3565;53.254;10.352;2023-02-28T00:50:26;-1.90;99.90
7048;DHT22;3565;53.254;10.352;2023-02-28T00:52:55;-2.00;99.90
7048;DHT22;3565;53.254;10.352;2023-02-28T00:55:25;-1.90;99.90
7048;DHT22;3565;53.254;10.352;2023-02-28T00:57:54;-2.00;99.90
7048;DHT22;3565;53.254;10.352;2023-02-28T01:00:23;-1.90;99.90
7048;DHT22;3565;53.254;10.352;2023-02-28T01:02:54;-1.90;1.00
7048;DHT22;3565;53.254;10.352;2023-02-28T01:05:23;-1.90;1.00
7048;DHT22;3565;53.254;10.352;2023-02-28T01:07:54;-1.90;1.00
7048;DHT22;3565;53.254;10.352;2023-02-28T01:10:24;-1.90;1.00
7048;DHT22;3565;53.254;10.352;2023-02-28T01:12:53;-1.90;1.00
7048;DHT22;3565;53.254;10.352;2023-02-28T01:15:22;-1.90;1.00
7048;DHT22;3565;53.254;10.352;2023-02-28T01:17:52;-1.80;1.00
7048;DHT22;3565;53.254;10.352;2023-02-28T01:20:21;-1.80;1.00
7048;DHT22;3565;53.254;10.352;2023-02-28T01:22:50;-1.80;1.00
7048;DHT22;3565;53.254;10.352;2023-02-28T01:25:19;-1.80;1.00
7048;DHT22;3565;53.254;10.352;2023-02-28T01:27:49;-1.80;11.90
7048;DHT22;3565;53.254;10.352;2023-02-28T01:30:18;-1.70;1.00
7048;DHT22;3565;53.254;10.352;2023-02-28T01:32:47;-1.70;1.00
7048;DHT22;3565;53.254;10.352;2023-02-28T01:35:19;-1.70;1.00
7048;DHT22;3565;53.254;10.352;2023-02-28T01:37:48;-1.70;1.00
7048;DHT22;3565;53.254;10.352;2023-02-28T01:43:00;-1.80;1.00
7048;DHT22;3565;53.254;10.352;2023-02-28T01:45:30;-1.80;1.00
7048;DHT22;3565;53.254;10.352;2023-02-28T01:48:02;-1.80;1.00
7048;DHT22;3565;53.254;10.352;2023-02-28T01:53:15;-1.90;1.00
7048;DHT22;3565;53.254;10.352;2023-02-28T01:55:47;-2.00;99.90
7048;DHT22;3565;53.254;10.352;2023-02-28T01:58:17;-2.00;99.90
7048;DHT22;3565;53.254;10.352;2023-02-28T02:00:47;-2.10;99.90
7048;DHT22;3565;53.254;10.352;2023-02-28T02:03:18;-2.10;99.90
7048;DHT22;3565;53.254;10.352;2023-02-28T02:05:48;-2.10;99.90
7048;DHT22;3565;53.254;10.352;2023-02-28T02:08:21;-2.20;1.00
7048;DHT22;3565;53.254;10.352;2023-02-28T02:10:52;-2.20;1.00
7048;DHT22;3565;53.254;10.352;2023-02-28T02:13:46;-2.30;1.00
7048;DHT22;3565;53.254;10.352;2023-02-28T02:16:25;-2.30;1.00
7048;DHT22;3565;53.254;10.352;2023-02-28T02:22:07;-2.30;94.20
7048;DHT22;3565;53.254;10.352;2023-02-28T02:25:11;-2.30;99.90
7048;DHT22;3565;53.254;10.352;2023-02-28T02:28:18;-2.40;65.10
7048;DHT22;3565;53.254;10.352;2023-02-28T02:31:09;-2.50;99.90
7048;DHT22;3565;53.254;10.352;2023-02-28T02:34:19;-2.50;99.90
7048;DHT22;3565;53.254;10.352;2023-02-28T02:36:51;-2.40;99.90
7048;DHT22;3565;53.254;10.352;2023-02-28T02:42:06;-2.50;1.00
7048;DHT22;3565;53.254;10.352;2023-02-28T02:47:20;-2.50;1.00
7048;DHT22;3565;53.254;10.352;2023-02-28T02:49:52;-2.50;1.00
7048;DHT22;3565;53.254;10.352;2023-02-28T02:55:05;-2.60;1.00
7048;DHT22;3565;53.254;10.352;2023-02-28T02:57:38;-2.70;1.00
7048;DHT22;3565;53.254;10.352;2023-02-28T03:00:13;-2.70;1.00
7048;DHT22;3565;53.254;10.352;2023-02-28T03:02:44;-2.70;1.00
7048;DHT22;3565;53.254;10.352;2023-02-28T03:07:54;-2.80;1.00
7048;DHT22;3565;53.254;10.352;2023-02-28T03:10:32;-2.80;1.00
7048;DHT22;3565;53.254;10.352;2023-02-28T03:16:26;-2.90;1.00
7048;DHT22;3565;53.254;10.352;2023-02-28T03:19:01;-3.00;1.00
7048;DHT22;3565;53.254;10.352;2023-02-28T03:21:32;-3.00;1.00
7048;DHT22;3565;53.254;10.352;2023-02-28T03:24:06;-3.10;38.00
7048;DHT22;3565;53.254;10.352;2023-02-28T03:26:38;-3.10;70.80
7048;DHT22;3565;53.254;10.352;2023-02-28T03:31:53;-3.20;99.90
7048;DHT22;3565;53.254;10.352;2023-02-28T03:34:26;-3.20;99.90
7048;DHT22;3565;53.254;10.352;2023-02-28T03:36:57;-3.30;99.90
7048;DHT22;3565;53.254;10.352;2023-02-28T03:39:30;-3.20;1.00
7048;DHT22;3565;53.254;10.352;2023-02-28T03:42:03;-3.30;1.00
7048;DHT22;3565;53.254;10.352;2023-02-28T03:44:36;-3.30;1.00
7048;DHT22;3565;53.254;10.352;2023-02-28T03:47:09;-3.30;1.00
7048;DHT22;3565;53.254;10.352;2023-02-28T03:52:23;-3.30;1.00
7048;DHT22;3565;53.254;10.352;2023-02-28T03:54:56;-3.20;1.00
7048;DHT22;3565;53.254;10.352;2023-02-28T03:57:32;-3.20;1.00
7048;DHT22;3565;53.254;10.352;2023-02-28T04:00:04;-3.20;1.00
7048;DHT22;3565;53.254;10.352;2023-02-28T04:02:34;-3.30;1.00
7048;DHT22;3565;53.254;10.352;2023-02-28T04:05:04;-3.20;13.20
7048;DHT22;3565;53.254;10.352;2023-02-28T04:07:34;-3.20;10.40
7048;DHT22;3565;53.254;10.352;2023-02-28T04:10:04;-3.20;8.50
7048;DHT22;3565;53.254;10.352;2023-02-28T04:12:35;-3.20;21.10
7048;DHT22;3565;53.254;10.352;2023-02-28T04:15:08;-3.20;32.90
7048;DHT22;3565;53.254;10.352;2023-02-28T04:17:38;-3.20;27.40
7048;DHT22;3565;53.254;10.352;2023-02-28T04:20:09;-3.20;26.40
7048;DHT22;3565;53.254;10.352;2023-02-28T04:22:39;-3.30;23.30
7048;DHT22;3565;53.254;10.352;2023-02-28T04:25:09;-3.30;25.20
7048;DHT22;3565;53.254;10.352;2023-02-28T04:27:38;-3.30;23.80
7048;DHT22;3565;53.254;10.352;2023-02-28T04:30:10;-3.40;23.10
7048;DHT22;3565;53.254;10.352;2023-02-28T04:32:39;-3.40;29.50
7048;DHT22;3565;53.254;10.352;2023-02-28T04:35:09;-3.40;48.50
7048;DHT22;3565;53.254;10.352;2023-02-28T04:37:38;-3.40;70.10
7048;DHT22;3565;53.254;10.352;2023-02-28T04:40:10;-3.40;82.20
7048;DHT22;3565;53.254;10.352;2023-02-28T04:42:39;-3.50;81.20
7048;DHT22;3565;53.254;10.352;2023-02-28T04:45:10;-3.50;82.70
7048;DHT22;3565;53.254;10.352;2023-02-28T04:50:19;-3.50;69.50
7048;DHT22;3565;53.254;10.352;2023-02-28T04:55:26;-3.50;97.80
7048;DHT22;3565;53.254;10.352;2023-02-28T04:57:55;-3.40;99.90
7048;DHT22;3565;53.254;10.352;2023-02-28T05:00:25;-3.50;98.50
7048;DHT22;3565;53.254;10.352;2023-02-28T05:02:55;-3.50;98.80
7048;DHT22;3565;53.254;10.352;2023-02-28T05:05:24;-3.50;93.20
7048;DHT22;3565;53.254;10.352;2023-02-28T05:07:53;-3.50;92.60
7048;DHT22;3565;53.254;10.352;2023-02-28T05:10:23;-3.50;92.50
7048;DHT22;3565;53.254;10.352;2023-02-28T05:12:53;-3.60;83.70
7048;DHT22;3565;53.254;10.352;2023-02-28T05:15:23;-3.60;89.90
7048;DHT22;3565;53.254;10.352;2023-02-28T05:20:31;-3.70;58.70
7048;DHT22;3565;53.254;10.352;2023-02-28T05:23:01;-3.70;85.60
7048;DHT22;3565;53.254;10.352;2023-02-28T05:25:31;-3.70;89.00
7048;DHT22;3565;53.254;10.352;2023-02-28T05:28:00;-3.70;96.20
7048;DHT22;3565;53.254;10.352;2023-02-28T05:30:29;-3.70;97.70
7048;DHT22;3565;53.254;10.352;2023-02-28T05:32:59;-3.70;97.30
7048;DHT22;3565;53.254;10.352;2023-02-28T05:35:28;-3.80;90.70
7048;DHT22;3565;53.254;10.352;2023-02-28T05:37:58;-3.80;66.30
7048;DHT22;3565;53.254;10.352;2023-02-28T05:40:29;-3.80;90.90
7048;DHT22;3565;53.254;10.352;2023-02-28T05:42:58;-3.80;98.30
7048;DHT22;3565;53.254;10.352;2023-02-28T05:45:27;-3.80;77.70
7048;DHT22;3565;53.254;10.352;2023-02-28T05:47:57;-3.90;84.70
7048;DHT22;3565;53.254;10.352;2023-02-28T05:50:26;-3.90;95.20
7048;DHT22;3565;53.254;10.352;2023-02-28T05:52:55;-3.90;98.20
7048;DHT22;3565;53.254;10.352;2023-02-28T05:55:24;-3.90;99.90
7048;DHT22;3565;53.254;10.352;2023-02-28T05:57:54;-3.90;99.90
7048;DHT22;3565;53.254;10.352;2023-02-28T06:00:24;-3.90;99.90
7048;DHT22;3565;53.254;10.352;2023-02-28T06:02:53;-3.90;99.90
7048;DHT22;3565;53.254;10.352;2023-02-28T06:05:25;-4.00;99.90
7048;DHT22;3565;53.254;10.352;2023-02-28T06:07:54;-4.00;99.90
7048;DHT22;3565;53.254;10.352;2023-02-28T06:10:23;-3.90;99.90
7048;DHT22;3565;53.254;10.352;2023-02-28T06:12:54;-4.00;99.90
7048;DHT22;3565;53.254;10.352;2023-02-28T06:15:23;-4.00;99.90
7048;DHT22;3565;53.254;10.352;2023-02-28T06:17:53;-4.00;99.90
7048;DHT22;3565;53.254;10.352;2023-02-28T06:20:24;-4.00;99.90
7048;DHT22;3565;53.254;10.352;2023-02-28T06:22:56;-4.00;99.90
7048;DHT22;3565;53.254;10.352;2023-02-28T06:28:07;-4.00;99.90
7048;DHT22;3565;53.254;10.352;2023-02-28T06:30:37;-4.00;99.90
7048;DHT22;3565;53.254;10.352;2023-02-28T06:33:06;-3.90;99.90
7048;DHT22;3565;53.254;10.352;2023-02-28T06:35:36;-3.90;99.90
7048;DHT22;3565;53.254;10.352;2023-02-28T06:38:06;-3.90;99.90
7048;DHT22;3565;53.254;10.352;2023-02-28T06:40:35;-3.90;99.90
7048;DHT22;3565;53.254;10.352;2023-02-28T06:43:04;-3.20;99.90
7048;DHT22;3565;53.254;10.352;2023-02-28T06:45:34;-3.80;99.90
7048;DHT22;3565;53.254;10.352;2023-02-28T06:48:03;-3.70;99.90
7048;DHT22;3565;53.254;10.352;2023-02-28T06:50:32;-3.70;99.90
7048;DHT22;3565;53.254;10.352;2023-02-28T06:53:02;-3.60;99.90
7048;DHT22;3565;53.254;10.352;2023-02-28T06:55:31;-3.50;99.90
7048;DHT22;3565;53.254;10.352;2023-02-28T06:58:00;-3.50;99.90
7048;DHT22;3565;53.254;10.352;2023-02-28T07:00:29;-3.40;99.90
7048;DHT22;3565;53.254;10.352;2023-02-28T07:02:58;-3.40;99.90
7048;DHT22;3565;53.254;10.352;2023-02-28T07:05:27;-3.30;99.90
7048;DHT22;3565;53.254;10.352;2023-02-28T07:07:57;-3.30;99.90
7048;DHT22;3565;53.254;10.352;2023-02-28T07:10:26;-3.30;99.90
7048;DHT22;3565;53.254;10.352;2023-02-28T07:12:55;-3.20;99.90
7048;DHT22;3565;53.254;10.352;2023-02-28T07:15:25;-3.10;99.90
7048;DHT22;3565;53.254;10.352;2023-02-28T07:17:54;-3.00;99.90
7048;DHT22;3565;53.254;10.352;2023-02-28T07:20:24;-2.90;99.90
7048;DHT22;3565;53.254;10.352;2023-02-28T07:22:53;-2.80;99.90
7048;DHT22;3565;53.254;10.352;2023-02-28T07:25:24;-2.60;99.90
7048;DHT22;3565;53.254;10.352;2023-02-28T07:27:54;-2.40;99.90
7048;DHT22;3565;53.254;10.352;2023-02-28T07:30:23;-2.20;99.90
7048;DHT22;3565;53.254;10.352;2023-02-28T07:32:53;-2.00;99.90
7048;DHT22;3565;53.254;10.352;2023-02-28T07:35:23;-1.80;99.90
7048;DHT22;3565;53.254;10.352;2023-02-28T07:37:52;-1.60;99.90
7048;DHT22;3565;53.254;10.352;2023-02-28T07:40:22;-1.30;99.90
7048;DHT22;3565;53.254;10.352;2023-02-28T07:42:51;-1.20;1.00
7048;DHT22;3565;53.254;10.352;2023-02-28T07:45:20;-1.10;1.00
7048;DHT22;3565;53.254;10.352;2023-02-28T07:47:50;-1.00;99.90
7048;DHT22;3565;53.254;10.352;2023-02-28T07:50:19;-0.80;57.00
7048;DHT22;3565;53.254;10.352;2023-02-28T07:52:48;-0.60;1.00
7048;DHT22;3565;53.254;10.352;2023-02-28T07:55:18;-0.50;99.90
7048;DHT22;3565;53.254;10.352;2023-02-28T07:57:47;-0.50;99.90
7048;DHT22;3565;53.254;10.352;2023-02-28T08:00:17;-0.50;1.00
7048;DHT22;3565;53.254;10.352;2023-02-28T08:02:46;-0.20;99.90
7048;DHT22;3565;53.254;10.352;2023-02-28T08:05:16;-0.20;99.90
7048;DHT22;3565;53.254;10.352;2023-02-28T08:07:46;0.00;99.90
7048;DHT22;3565;53.254;10.352;2023-02-28T08:10:15;0.50;99.90
7048;DHT22;3565;53.254;10.352;2023-02-28T08:12:45;1.10;99.90
7048;DHT22;3565;53.254;10.352;2023-02-28T08:15:14;1.30;1.00
7048;DHT22;3565;53.254;10.352;2023-02-28T08:17:44;1.60;1.00
7048;DHT22;3565;53.254;10.352;2023-02-28T08:20:13;1.80;1.00
7048;DHT22;3565;53.254;10.352;2023-02-28T08:22:42;2.10;99.90
7048;DHT22;3565;53.254;10.352;2023-02-28T08:25:11;2.70;99.90
7048;DHT22;3565;53.254;10.352;2023-02-28T08:27:40;3.20;99.90
7048;DHT22;3565;53.254;10.352;2023-02-28T08:30:12;3.60;10.80
7048;DHT22;3565;53.254;10.352;2023-02-28T08:32:41;3.90;11.10
7048;DHT22;3565;53.254;10.352;2023-02-28T08:35:11;4.10;1.00
7048;DHT22;3565;53.254;10.352;2023-02-28T08:37:41;4.60;1.10
7048;DHT22;3565;53.254;10.352;2023-02-28T08:40:11;4.90;1.00
7048;DHT22;3565;53.254;10.352;2023-02-28T08:42:42;5.20;1.00
7048;DHT22;3565;53.254;10.352;2023-02-28T08:45:12;5.80;1.00
7048;DHT22;3565;53.254;10.352;2023-02-28T08:47:41;6.20;1.00
7048;DHT22;3565;53.254;10.352;2023-02-28T08:50:11;6.30;1.00
7048;DHT22;3565;53.254;10.352;2023-02-28T08:52:44;6.70;1.00
7048;DHT22;3565;53.254;10.352;2023-02-28T08:55:13;6.30;1.00
7048;DHT22;3565;53.254;10.352;2023-02-28T08:57:42;6.40;1.00
7048;DHT22;3565;53.254;10.352;2023-02-28T09:00:13;6.20;1.00
7048;DHT22;3565;53.254;10.352;2023-02-28T09:02:43;6.40;1.00
7048;DHT22;3565;53.254;10.352;2023-02-28T09:05:12;7.40;1.00
7048;DHT22;3565;53.254;10.352;2023-02-28T09:07:41;8.20;1.00
7048;DHT22;3565;53.254;10.352;2023-02-28T09:10:11;7.60;1.00
7048;DHT22;3565;53.254;10.352;2023-02-28T09:12:40;7.30;1.00
7048;DHT22;3565;53.254;10.352;2023-02-28T09:15:11;7.40;1.00
7048;DHT22;3565;53.254;10.352;2023-02-28T09:17:43;7.30;1.00
7048;DHT22;3565;53.254;10.352;2023-02-28T09:20:13;8.20;1.00
7048;DHT22;3565;53.254;10.352;2023-02-28T09:22:42;8.70;1.00
7048;DHT22;3565;53.254;10.352;2023-02-28T09:25:11;9.50;1.00
7048;DHT22;3565;53.254;10.352;2023-02-28T09:27:40;10.10;1.00
7048;DHT22;3565;53.254;10.352;2023-02-28T09:30:12;10.00;1.00
7048;DHT22;3565;53.254;10.352;2023-02-28T09:32:42;10.00;1.00
7048;DHT22;3565;53.254;10.352;2023-02-28T09:35:13;9.80;1.00
7048;DHT22;3565;53.254;10.352;2023-02-28T09:37:43;10.30;1.00
7048;DHT22;3565;53.254;10.352;2023-02-28T09:40:14;10.40;1.00
7048;DHT22;3565;53.254;10.352;2023-02-28T09:42:47;10.20;1.00
7048;DHT22;3565;53.254;10.352;2023-02-28T09:48:03;10.70;1.00
7048;DHT22;3565;53.254;10.352;2023-02-28T09:50:35;10.00;1.00
7048;DHT22;3565;53.254;10.352;2023-02-28T09:55:51;10.10;1.00
7048;DHT22;3565;53.254;10.352;2023-02-28T09:58:24;10.20;1.00
7048;DHT22;3565;53.254;10.352;2023-02-28T10:03:39;10.00;1.00
7048;DHT22;3565;53.254;10.352;2023-02-28T10:06:13;10.90;1.00
7048;DHT22;3565;53.254;10.352;2023-02-28T10:08:47;10.90;1.00
7048;DHT22;3565;53.254;10.352;2023-02-28T10:11:19;11.10;1.00
7048;DHT22;3565;53.254;10.352;2023-02-28T10:13:56;11.30;1.00
7048;DHT22;3565;53.254;10.352;2023-02-28T10:16:29;10.40;1.00
7048;DHT22;3565;53.254;10.352;2023-02-28T10:19:03;9.90;1.00
7048;DHT22;3565;53.254;10.352;2023-02-28T10:21:35;10.30;1.00
7048;DHT22;3565;53.254;10.352;2023-02-28T10:24:18;10.90;1.00
7048;DHT22;3565;53.254;10.352;2023-02-28T10:26:43;10.60;1.00
7048;DHT22;3565;53.254;10.352;2023-02-28T10:29:15;10.80;1.00
7048;DHT22;3565;53.254;10.352;2023-02-28T10:31:44;10.50;1.00
7048;DHT22;3565;53.254;10.352;2023-02-28T10:34:14;10.20;1.00
7048;DHT22;3565;53.254;10.352;2023-02-28T10:36:43;9.20;1.00
7048;DHT22;3565;53.254;10.352;2023-02-28T10:39:37;9.20;1.00
7048;DHT22;3565;53.254;10.352;2023-02-28T10:42:19;9.10;1.00
7048;DHT22;3565;53.254;10.352;2023-02-28T10:44:48;10.70;1.00
7048;DHT22;3565;53.254;10.352;2023-02-28T10:47:20;11.50;1.00
7048;DHT22;3565;53.254;10.352;2023-02-28T10:49:50;11.70;1.00
7048;DHT22;3565;53.254;10.352;2023-02-28T10:52:35;12.00;1.00
7048;DHT22;3565;53.254;10.352;2023-02-28T10:55:22;12.20;1.00
7048;DHT22;3565;53.254;10.352;2023-02-28T10:57:53;11.90;1.00
7048;DHT22;3565;53.254;10.352;2023-02-28T11:00:24;12.00;1.00
7048;DHT22;3565;53.254;10.352;2023-02-28T11:02:54;11.30;1.00
7048;DHT22;3565;53.254;10.352;2023-02-28T11:05:30;10.10;1.00
7048;DHT22;3565;53.254;10.352;2023-02-28T11:08:04;10.30;1.00
7048;DHT22;3565;53.254;10.352;2023-02-28T11:10:34;10.10;1.00
7048;DHT22;3565;53.254;10.352;2023-02-28T11:13:03;10.10;1.00
7048;DHT22;3565;53.254;10.352;2023-02-28T11:15:33;10.50;1.00
7048;DHT22;3565;53.254;10.352;2023-02-28T11:18:06;10.70;1.00
7048;DHT22;3565;53.254;10.352;2023-02-28T11:20:35;10.20;1.00
7048;DHT22;3565;53.254;10.352;2023-02-28T11:23:05;9.70;1.00
7048;DHT22;3565;53.254;10.352;2023-02-28T11:25:37;10.80;1.00
7048;DHT22;3565;53.254;10.352;2023-02-28T11:28:22;11.00;1.00
7048;DHT22;3565;53.254;10.352;2023-02-28T11:30:40;10.70;1.00
7048;DHT22;3565;53.254;10.352;2023-02-28T11:33:30;11.10;1.00
7048;DHT22;3565;53.254;10.352;2023-02-28T11:36:01;11.40;1.00
7048;DHT22;3565;53.254;10.352;2023-02-28T11:38:31;11.20;1.00
7048;DHT22;3565;53.254;10.352;2023-02-28T11:41:12;11.20;1.00
7048;DHT22;3565;53.254;10.352;2023-02-28T11:43:53;10.70;1.00
7048;DHT22;3565;53.254;10.352;2023-02-28T11:46:28;10.50;1.00
7048;DHT22;3565;53.254;10.352;2023-02-28T11:49:02;11.20;1.00
7048;DHT22;3565;53.254;10.352;2023-02-28T11:51:35;11.20;1.00
7048;DHT22;3565;53.254;10.352;2023-02-28T11:54:25;11.80;1.00
7048;DHT22;3565;53.254;10.352;2023-02-28T11:56:58;10.90;1.00
7048;DHT22;3565;53.254;10.352;2023-02-28T12:02:25;11.40;1.00
7048;DHT22;3565;53.254;10.352;2023-02-28T12:05:22;10.10;1.00
7048;DHT22;3565;53.254;10.352;2023-02-28T12:08:00;9.60;1.00
7048;DHT22;3565;53.254;10.352;2023-02-28T12:10:33;10.40;1.00
7048;DHT22;3565;53.254;10.352;2023-02-28T12:13:18;10.90;1.00
7048;DHT22;3565;53.254;10.352;2023-02-28T12:16:07;11.50;1.00
7048;DHT22;3565;53.254;10.352;2023-02-28T12:18:59;11.80;1.00
7048;DHT22;3565;53.254;10.352;2023-02-28T12:21:33;11.60;1.00
7048;DHT22;3565;53.254;10.352;2023-02-28T12:24:12;10.70;1.00
7048;DHT22;3565;53.254;10.352;2023-02-28T12:26:43;11.60;1.00
7048;DHT22;3565;53.254;10.352;2023-02-28T12:29:17;11.30;1.00
7048;DHT22;3565;53.254;10.352;2023-02-28T12:31:49;10.80;1.00
7048;DHT22;3565;53.254;10.352;2023-02-28T12:34:22;11.10;1.00
7048;DHT22;3565;53.254;10.352;2023-02-28T12:36:53;11.10;1.00
7048;DHT22;3565;53.254;10.352;2023-02-28T12:39:26;10.50;1.00
7048;DHT22;3565;53.254;10.352;2023-02-28T12:41:58;10.90;1.00
7048;DHT22;3565;53.254;10.352;2023-02-28T12:44:30;11.30;1.00
7048;DHT22;3565;53.254;10.352;2023-02-28T12:47:01;11.90;1.00
7048;DHT22;3565;53.254;10.352;2023-02-28T12:49:36;11.70;1.00
7048;DHT22;3565;53.254;10.352;2023-02-28T12:52:05;11.30;1.00
7048;DHT22;3565;53.254;10.352;2023-02-28T12:54:40;10.10;1.00
7048;DHT22;3565;53.254;10.352;2023-02-28T12:57:12;10.20;1.00
7048;DHT22;3565;53.254;10.352;2023-02-28T12:59:44;11.00;1.00
7048;DHT22;3565;53.254;10.352;2023-02-28T13:02:33;11.90;1.00
7048;DHT22;3565;53.254;10.352;2023-02-28T13:05:29;12.10;1.00
7048;DHT22;3565;53.254;10.352;2023-02-28T13:08:26;12.70;1.00
7048;DHT22;3565;53.254;10.352;2023-02-28T13:10:55;12.10;1.00
7048;DHT22;3565;53.254;10.352;2023-02-28T13:13:26;13.10;1.00
7048;DHT22;3565;53.254;10.352;2023-02-28T13:16:03;12.90;1.00
7048;DHT22;3565;53.254;10.352;2023-02-28T13:18:37;12.60;1.00
7048;DHT22;3565;53.254;10.352;2023-02-28T13:21:08;11.90;1.00
7048;DHT22;3565;53.254;10.352;2023-02-28T13:23:59;11.90;1.00
7048;DHT22;3565;53.254;10.352;2023-02-28T13:27:17;12.20;1.00
7048;DHT22;3565;53.254;10.352;2023-02-28T13:29:43;11.40;1.00
7048;DHT22;3565;53.254;10.352;2023-02-28T13:35:43;10.90;1.00
7048;DHT22;3565;53.254;10.352;2023-02-28T13:38:37;11.00;1.00
7048;DHT22;3565;53.254;10.352;2023-02-28T13:44:28;13.10;1.00
7048;DHT22;3565;53.254;10.352;2023-02-28T13:47:21;13.20;1.00
7048;DHT22;3565;53.254;10.352;2023-02-28T13:49:52;12.80;1.00
7048;DHT22;3565;53.254;10.352;2023-02-28T13:52:23;12.50;1.00
7048;DHT22;3565;53.254;10.352;2023-02-28T13:57:54;12.50;1.00
7048;DHT22;3565;53.254;10.352;2023-02-28T14:00:34;13.40;1.00
7048;DHT22;3565;53.254;10.352;2023-02-28T14:03:29;13.40;1.00
7048;DHT22;3565;53.254;10.352;2023-02-28T14:09:16;12.50;1.00
7048;DHT22;3565;53.254;10.352;2023-02-28T14:11:46;11.30;1.00
7048;DHT22;3565;53.254;10.352;2023-02-28T14:17:21;12.50;1.00
7048;DHT22;3565;53.254;10.352;2023-02-28T14:19:50;13.20;1.00
7048;DHT22;3565;53.254;10.352;2023-02-28T14:22:36;12.80;1.00
7048;DHT22;3565;53.254;10.352;2023-02-28T14:25:10;11.50;1.00
7048;DHT22;3565;53.254;10.352;2023-02-28T14:27:45;11.80;1.00
7048;DHT22;3565;53.254;10.352;2023-02-28T14:30:29;11.70;1.00
7048;DHT22;3565;53.254;10.352;2023-02-28T14:33:04;11.40;1.00
7048;DHT22;3565;53.254;10.352;2023-02-28T14:35:46;12.10;1.00
7048;DHT22;3565;53.254;10.352;2023-02-28T14:38:18;12.30;1.00
7048;DHT22;3565;53.254;10.352;2023-02-28T14:40:52;11.90;1.00
7048;DHT22;3565;53.254;10.352;2023-02-28T14:43:23;11.60;1.00
7048;DHT22;3565;53.254;10.352;2023-02-28T14:45:55;11.50;1.00
7048;DHT22;3565;53.254;10.352;2023-02-28T14:48:25;11.10;1.00
7048;DHT22;3565;53.254;10.352;2023-02-28T14:50:57;11.00;1.00
7048;DHT22;3565;53.254;10.352;2023-02-28T14:53:29;11.40;1.00
7048;DHT22;3565;53.254;10.352;2023-02-28T14:55:59;11.00;1.00
7048;DHT22;3565;53.254;10.352;2023-02-28T14:58:30;10.00;1.00
7048;DHT22;3565;53.254;10.352;2023-02-28T15:01:01;9.80;1.00
7048;DHT22;3565;53.254;10.352;2023-02-28T15:03:32;9.00;1.00
7048;DHT22;3565;53.254;10.352;2023-02-28T15:06:03;8.70;1.00
7048;DHT22;3565;53.254;10.352;2023-02-28T15:08:33;8.40;1.00
7048;DHT22;3565;53.254;10.352;2023-02-28T15:11:05;8.10;1.00
7048;DHT22;3565;53.254;10.352;2023-02-28T15:13:38;8.70;1.00
7048;DHT22;3565;53.254;10.352;2023-02-28T15:16:11;9.30;1.00
7048;DHT22;3565;53.254;10.352;2023-02-28T15:18:47;8.40;1.00
7048;DHT22;3565;53.254;10.352;2023-02-28T15:21:18;8.60;1.00
7048;DHT22;3565;53.254;10.352;2023-02-28T15:23:51;9.10;1.00
7048;DHT22;3565;53.254;10.352;2023-02-28T15:26:22;8.90;1.00
7048;DHT22;3565;53.254;10.352;2023-02-28T15:28:57;8.60;1.00
7048;DHT22;3565;53.254;10.352;2023-02-28T15:31:27;8.90;1.00
7048;DHT22;3565;53.254;10.352;2023-02-28T15:34:02;9.50;1.00
7048;DHT22;3565;53.254;10.352;2023-02-28T15:36:31;10.00;1.00
7048;DHT22;3565;53.254;10.352;2023-02-28T15:39:03;9.70;1.00
7048;DHT22;3565;53.254;10.352;2023-02-28T15:41:36;10.00;1.00
7048;DHT22;3565;53.254;10.352;2023-02-28T15:44:16;9.70;1.00
7048;DHT22;3565;53.254;10.352;2023-02-28T15:46:54;10.10;1.00
7048;DHT22;3565;53.254;10.352;2023-02-28T15:49:23;10.20;1.00
7048;DHT22;3565;53.254;10.352;2023-02-28T15:51:55;10.20;1.00
7048;DHT22;3565;53.254;10.352;2023-02-28T15:54:28;9.90;1.00
7048;DHT22;3565;53.254;10.352;2023-02-28T15:57:00;9.90;1.00
7048;DHT22;3565;53.254;10.352;2023-02-28T15:59:30;9.70;1.00
7048;DHT22;3565;53.254;10.352;2023-02-28T16:02:13;9.20;1.00
7048;DHT22;3565;53.254;10.352;2023-02-28T16:07:57;9.70;1.00
7048;DHT22;3565;53.254;10.352;2023-02-28T16:10:28;9.70;1.00
7048;DHT22;3565;53.254;10.352;2023-02-28T16:12:58;9.90;1.00
7048;DHT22;3565;53.254;10.352;2023-02-28T16:15:28;9.60;1.00
7048;DHT22;3565;53.254;10.352;2023-02-28T16:17:58;9.20;1.00
7048;DHT22;3565;53.254;10.352;2023-02-28T16:20:28;9.00;1.00
7048;DHT22;3565;53.254;10.352;2023-02-28T16:22:58;8.40;1.00
7048;DHT22;3565;53.254;10.352;2023-02-28T16:25:33;8.10;1.00
7048;DHT22;3565;53.254;10.352;2023-02-28T16:28:03;7.60;1.00
7048;DHT22;3565;53.254;10.352;2023-02-28T16:30:32;7.30;1.00
7048;DHT22;3565;53.254;10.352;2023-02-28T16:33:01;7.20;1.00
7048;DHT22;3565;53.254;10.352;2023-02-28T16:35:30;6.80;1.00
7048;DHT22;3565;53.254;10.352;2023-02-28T16:38:00;6.70;1.00
7048;DHT22;3565;53.254;10.352;2023-02-28T16:40:33;6.40;1.00
7048;DHT22;3565;53.254;10.352;2023-02-28T16:43:04;6.20;1.00
7048;DHT22;3565;53.254;10.352;2023-02-28T16:45:32;5.90;1.00
7048;DHT22;3565;53.254;10.352;2023-02-28T16:48:01;5.70;1.00
7048;DHT22;3565;53.254;10.352;2023-02-28T16:50:33;5.40;1.00
7048;DHT22;3565;53.254;10.352;2023-02-28T16:53:01;5.30;1.00
7048;DHT22;3565;53.254;10.352;2023-02-28T16:55:31;5.00;1.00
7048;DHT22;3565;53.254;10.352;2023-02-28T16:58:01;4.90;1.00
7048;DHT22;3565;53.254;10.352;2023-02-28T17:00:32;4.70;1.00
7048;DHT22;3565;53.254;10.352;2023-02-28T17:03:02;4.50;1.00
7048;DHT22;3565;53.254;10.352;2023-02-28T17:05:34;4.30;1.00
7048;DHT22;3565;53.254;10.352;2023-02-28T17:08:04;4.10;1.00
7048;DHT22;3565;53.254;10.352;2023-02-28T17:10:34;4.00;1.00
7048;DHT22;3565;53.254;10.352;2023-02-28T17:13:04;3.90;1.00
7048;DHT22;3565;53.254;10.352;2023-02-28T17:15:35;3.70;1.00
7048;DHT22;3565;53.254;10.352;2023-02-28T17:18:06;3.60;1.00
7048;DHT22;3565;53.254;10.352;2023-02-28T17:20:36;3.60;1.00
7048;DHT22;3565;53.254;10.352;2023-02-28T17:23:06;3.50;1.00
7048;DHT22;3565;53.254;10.352;2023-02-28T17:25:35;3.40;1.00
7048;DHT22;3565;53.254;10.352;2023-02-28T17:28:05;3.30;1.00
7048;DHT22;3565;53.254;10.352;2023-02-28T17:30:35;3.20;1.00
7048;DHT22;3565;53.254;10.352;2023-02-28T17:33:04;3.10;1.00
7048;DHT22;3565;53.254;10.352;2023-02-28T17:35:33;3.00;1.00
7048;DHT22;3565;53.254;10.352;2023-02-28T17:38:02;2.90;1.00
7048;DHT22;3565;53.254;10.352;2023-02-28T17:40:33;2.80;1.00
7048;DHT22;3565;53.254;10.352;2023-02-28T17:43:03;2.70;1.00